Penetanguishene, Canada
Current Conditions -  °F | °C
As of 11:00 AM on Monday 22 Dec 2014 (Local Time) from CYQA Reporting Station
Overcast Overcast  
Wind Chill: 20°   Ceiling: 1700
Heat Index: 27°   Visibility: 9mi
Dew Point: 25°   Wind: 6mph
Humidity: 93%   Direction: 110°ESE
Pressure: 30.18"   Gusts: NA
Location:  44.77°N, 79.93°W
Report Text: CYQA 221600Z AUTO 11005KT 060V140 9SM FEW011 OVC017 M03/M04 A3018 RMK SLP233
Loading
Personal Weather Stations






























Interactive Weather Map New forecast layout! Learn more

10-Day Weather Forecast

Advertisements
Track Severe Weather on mobile